sensor_id;sensor_type;location;lat;lon;timestamp;P1;durP1;ratioP1;P2;durP2;ratioP2
43996;SDS011;34318;45.818;15.964;2023-03-03T00:01:13;56.85;;;51.63;;
43996;SDS011;34318;45.818;15.964;2023-03-03T00:03:41;55.53;;;50.45;;
43996;SDS011;34318;45.818;15.964;2023-03-03T00:06:09;56.85;;;51.75;;
43996;SDS011;34318;45.818;15.964;2023-03-03T00:08:37;56.10;;;51.05;;
43996;SDS011;34318;45.818;15.964;2023-03-03T00:11:05;55.55;;;50.40;;
43996;SDS011;34318;45.818;15.964;2023-03-03T00:13:37;54.90;;;50.15;;
43996;SDS011;34318;45.818;15.964;2023-03-03T00:16:27;56.50;;;50.83;;
43996;SDS011;34318;45.818;15.964;2023-03-03T00:18:54;52.95;;;48.20;;
43996;SDS011;34318;45.818;15.964;2023-03-03T00:21:26;55.85;;;50.95;;
43996;SDS011;34318;45.818;15.964;2023-03-03T00:23:57;53.60;;;48.85;;
43996;SDS011;34318;45.818;15.964;2023-03-03T00:26:35;51.97;;;47.38;;
43996;SDS011;34318;45.818;15.964;2023-03-03T00:34:42;50.20;;;45.65;;
43996;SDS011;34318;45.818;15.964;2023-03-03T00:37:22;50.25;;;45.65;;
43996;SDS011;34318;45.818;15.964;2023-03-03T00:39:52;51.67;;;47.03;;
43996;SDS011;34318;45.818;15.964;2023-03-03T00:42:19;51.08;;;46.58;;
43996;SDS011;34318;45.818;15.964;2023-03-03T00:44:46;49.05;;;44.60;;
43996;SDS011;34318;45.818;15.964;2023-03-03T00:50:38;46.70;;;42.50;;
43996;SDS011;34318;45.818;15.964;2023-03-03T00:52:44;47.55;;;43.35;;
43996;SDS011;34318;45.818;15.964;2023-03-03T00:55:12;47.20;;;42.92;;
43996;SDS011;34318;45.818;15.964;2023-03-03T00:57:39;47.15;;;43.05;;
43996;SDS011;34318;45.818;15.964;2023-03-03T01:00:06;45.90;;;41.72;;
43996;SDS011;34318;45.818;15.964;2023-03-03T01:02:34;45.67;;;41.65;;
43996;SDS011;34318;45.818;15.964;2023-03-03T01:05:01;44.15;;;40.35;;
43996;SDS011;34318;45.818;15.964;2023-03-03T01:07:28;43.20;;;39.25;;
43996;SDS011;34318;45.818;15.964;2023-03-03T01:09:55;43.90;;;40.03;;
43996;SDS011;34318;45.818;15.964;2023-03-03T01:12:22;45.05;;;40.67;;
43996;SDS011;34318;45.818;15.964;2023-03-03T01:14:50;47.72;;;43.58;;
43996;SDS011;34318;45.818;15.964;2023-03-03T01:17:19;47.28;;;42.72;;
43996;SDS011;34318;45.818;15.964;2023-03-03T01:19:47;44.20;;;40.25;;
43996;SDS011;34318;45.818;15.964;2023-03-03T01:22:14;45.55;;;41.45;;
43996;SDS011;34318;45.818;15.964;2023-03-03T01:24:41;44.42;;;40.28;;
43996;SDS011;34318;45.818;15.964;2023-03-03T01:27:08;42.88;;;38.92;;
43996;SDS011;34318;45.818;15.964;2023-03-03T01:29:36;43.40;;;39.53;;
43996;SDS011;34318;45.818;15.964;2023-03-03T01:32:03;42.92;;;39.13;;
43996;SDS011;34318;45.818;15.964;2023-03-03T01:34:30;42.22;;;38.42;;
43996;SDS011;34318;45.818;15.964;2023-03-03T01:36:58;41.10;;;37.50;;
43996;SDS011;34318;45.818;15.964;2023-03-03T01:39:26;42.80;;;38.80;;
43996;SDS011;34318;45.818;15.964;2023-03-03T01:41:53;44.08;;;39.90;;
43996;SDS011;34318;45.818;15.964;2023-03-03T01:44:20;43.40;;;39.45;;
43996;SDS011;34318;45.818;15.964;2023-03-03T01:46:54;40.70;;;37.10;;
43996;SDS011;34318;45.818;15.964;2023-03-03T01:51:51;39.60;;;36.15;;
43996;SDS011;34318;45.818;15.964;2023-03-03T01:54:24;41.13;;;37.53;;
43996;SDS011;34318;45.818;15.964;2023-03-03T01:56:54;42.72;;;38.83;;
43996;SDS011;34318;45.818;15.964;2023-03-03T01:59:24;39.83;;;36.38;;
43996;SDS011;34318;45.818;15.964;2023-03-03T02:01:52;41.13;;;37.50;;
43996;SDS011;34318;45.818;15.964;2023-03-03T02:04:20;40.00;;;36.53;;
43996;SDS011;34318;45.818;15.964;2023-03-03T02:06:49;39.97;;;36.38;;
43996;SDS011;34318;45.818;15.964;2023-03-03T02:09:23;38.20;;;34.70;;
43996;SDS011;34318;45.818;15.964;2023-03-03T02:11:54;39.38;;;35.88;;
43996;SDS011;34318;45.818;15.964;2023-03-03T02:14:23;38.58;;;35.13;;
43996;SDS011;34318;45.818;15.964;2023-03-03T02:16:50;38.20;;;34.40;;
43996;SDS011;34318;45.818;15.964;2023-03-03T02:19:23;38.50;;;35.10;;
43996;SDS011;34318;45.818;15.964;2023-03-03T02:21:51;38.05;;;34.65;;
43996;SDS011;34318;45.818;15.964;2023-03-03T02:25:05;37.80;;;34.47;;
43996;SDS011;34318;45.818;15.964;2023-03-03T02:27:06;35.72;;;32.47;;
43996;SDS011;34318;45.818;15.964;2023-03-03T02:29:33;37.38;;;34.17;;
43996;SDS011;34318;45.818;15.964;2023-03-03T02:32:01;38.13;;;34.58;;
43996;SDS011;34318;45.818;15.964;2023-03-03T02:34:28;35.53;;;32.45;;
43996;SDS011;34318;45.818;15.964;2023-03-03T02:36:55;34.97;;;31.90;;
43996;SDS011;34318;45.818;15.964;2023-03-03T02:39:24;37.50;;;34.30;;
43996;SDS011;34318;45.818;15.964;2023-03-03T02:42:15;33.50;;;30.58;;
43996;SDS011;34318;45.818;15.964;2023-03-03T02:44:44;35.35;;;32.15;;
43996;SDS011;34318;45.818;15.964;2023-03-03T02:47:12;34.80;;;31.55;;
43996;SDS011;34318;45.818;15.964;2023-03-03T02:49:39;36.13;;;32.92;;
43996;SDS011;34318;45.818;15.964;2023-03-03T02:52:09;36.50;;;33.20;;
43996;SDS011;34318;45.818;15.964;2023-03-03T02:54:36;34.50;;;31.50;;
43996;SDS011;34318;45.818;15.964;2023-03-03T02:57:04;33.30;;;30.45;;
43996;SDS011;34318;45.818;15.964;2023-03-03T02:59:31;34.92;;;31.75;;
43996;SDS011;34318;45.818;15.964;2023-03-03T03:01:58;35.05;;;31.80;;
43996;SDS011;34318;45.818;15.964;2023-03-03T03:04:26;33.33;;;30.42;;
43996;SDS011;34318;45.818;15.964;2023-03-03T03:06:53;33.72;;;30.80;;
43996;SDS011;34318;45.818;15.964;2023-03-03T03:09:21;33.38;;;30.42;;
43996;SDS011;34318;45.818;15.964;2023-03-03T03:11:49;33.55;;;30.58;;
43996;SDS011;34318;45.818;15.964;2023-03-03T03:14:16;34.83;;;31.50;;
43996;SDS011;34318;45.818;15.964;2023-03-03T03:16:44;30.25;;;27.60;;
43996;SDS011;34318;45.818;15.964;2023-03-03T03:19:11;31.83;;;28.98;;
43996;SDS011;34318;45.818;15.964;2023-03-03T03:21:38;32.88;;;29.95;;
43996;SDS011;34318;45.818;15.964;2023-03-03T03:24:05;33.25;;;30.45;;
43996;SDS011;34318;45.818;15.964;2023-03-03T03:26:33;31.38;;;28.58;;
43996;SDS011;34318;45.818;15.964;2023-03-03T03:29:00;31.02;;;28.35;;
43996;SDS011;34318;45.818;15.964;2023-03-03T03:31:27;32.97;;;30.02;;
43996;SDS011;34318;45.818;15.964;2023-03-03T03:33:54;32.00;;;29.20;;
43996;SDS011;34318;45.818;15.964;2023-03-03T03:36:21;31.33;;;28.52;;
43996;SDS011;34318;45.818;15.964;2023-03-03T03:38:49;30.52;;;27.63;;
43996;SDS011;34318;45.818;15.964;2023-03-03T03:41:17;31.90;;;29.17;;
43996;SDS011;34318;45.818;15.964;2023-03-03T03:43:44;31.70;;;28.83;;
43996;SDS011;34318;45.818;15.964;2023-03-03T03:46:12;31.27;;;28.58;;
43996;SDS011;34318;45.818;15.964;2023-03-03T03:48:39;31.77;;;28.58;;
43996;SDS011;34318;45.818;15.964;2023-03-03T03:51:06;31.35;;;28.45;;
43996;SDS011;34318;45.818;15.964;2023-03-03T03:53:33;32.17;;;29.27;;
43996;SDS011;34318;45.818;15.964;2023-03-03T03:56:00;31.95;;;29.05;;
43996;SDS011;34318;45.818;15.964;2023-03-03T03:58:28;30.52;;;27.83;;
43996;SDS011;34318;45.818;15.964;2023-03-03T04:01:00;30.63;;;27.80;;
43996;SDS011;34318;45.818;15.964;2023-03-03T04:03:27;30.48;;;27.73;;
43996;SDS011;34318;45.818;15.964;2023-03-03T04:05:54;29.70;;;26.98;;
43996;SDS011;34318;45.818;15.964;2023-03-03T04:08:21;31.15;;;28.23;;
43996;SDS011;34318;45.818;15.964;2023-03-03T04:10:49;31.38;;;28.38;;
43996;SDS011;34318;45.818;15.964;2023-03-03T04:13:16;29.70;;;26.90;;
43996;SDS011;34318;45.818;15.964;2023-03-03T04:15:43;30.75;;;27.88;;
43996;SDS011;34318;45.818;15.964;2023-03-03T04:18:10;30.42;;;27.63;;
43996;SDS011;34318;45.818;15.964;2023-03-03T04:20:39;30.80;;;28.08;;
43996;SDS011;34318;45.818;15.964;2023-03-03T04:23:06;29.77;;;26.88;;
43996;SDS011;34318;45.818;15.964;2023-03-03T04:25:33;29.55;;;26.50;;
43996;SDS011;34318;45.818;15.964;2023-03-03T04:28:01;30.73;;;27.85;;
43996;SDS011;34318;45.818;15.964;2023-03-03T04:30:30;30.27;;;27.38;;
43996;SDS011;34318;45.818;15.964;2023-03-03T04:32:58;29.38;;;26.50;;
43996;SDS011;34318;45.818;15.964;2023-03-03T04:35:25;28.23;;;25.60;;
43996;SDS011;34318;45.818;15.964;2023-03-03T04:37:52;29.88;;;26.98;;
43996;SDS011;34318;45.818;15.964;2023-03-03T04:40:20;29.88;;;27.02;;
43996;SDS011;34318;45.818;15.964;2023-03-03T04:42:47;29.95;;;27.23;;
43996;SDS011;34318;45.818;15.964;2023-03-03T04:45:14;29.63;;;26.73;;
43996;SDS011;34318;45.818;15.964;2023-03-03T04:47:41;27.70;;;25.25;;
43996;SDS011;34318;45.818;15.964;2023-03-03T04:50:09;29.35;;;26.65;;
43996;SDS011;34318;45.818;15.964;2023-03-03T04:52:37;28.75;;;26.23;;
43996;SDS011;34318;45.818;15.964;2023-03-03T04:55:04;26.95;;;24.35;;
43996;SDS011;34318;45.818;15.964;2023-03-03T04:57:35;28.92;;;26.13;;
43996;SDS011;34318;45.818;15.964;2023-03-03T05:00:03;30.02;;;27.23;;
43996;SDS011;34318;45.818;15.964;2023-03-03T05:02:31;28.75;;;26.15;;
43996;SDS011;34318;45.818;15.964;2023-03-03T05:04:58;28.73;;;25.92;;
43996;SDS011;34318;45.818;15.964;2023-03-03T05:07:26;27.65;;;25.25;;
43996;SDS011;34318;45.818;15.964;2023-03-03T05:09:53;27.20;;;24.73;;
43996;SDS011;34318;45.818;15.964;2023-03-03T05:12:20;29.58;;;26.63;;
43996;SDS011;34318;45.818;15.964;2023-03-03T05:14:47;31.38;;;28.42;;
43996;SDS011;34318;45.818;15.964;2023-03-03T05:17:15;28.40;;;25.77;;
43996;SDS011;34318;45.818;15.964;2023-03-03T05:19:42;28.05;;;25.45;;
43996;SDS011;34318;45.818;15.964;2023-03-03T05:22:09;27.05;;;24.40;;
43996;SDS011;34318;45.818;15.964;2023-03-03T05:24:36;28.85;;;26.25;;
43996;SDS011;34318;45.818;15.964;2023-03-03T05:27:04;27.70;;;25.20;;
43996;SDS011;34318;45.818;15.964;2023-03-03T05:29:31;27.13;;;24.60;;
43996;SDS011;34318;45.818;15.964;2023-03-03T05:31:58;28.65;;;25.85;;
43996;SDS011;34318;45.818;15.964;2023-03-03T05:34:25;27.13;;;24.67;;
43996;SDS011;34318;45.818;15.964;2023-03-03T05:36:53;26.50;;;24.10;;
43996;SDS011;34318;45.818;15.964;2023-03-03T05:39:20;27.13;;;24.60;;
43996;SDS011;34318;45.818;15.964;2023-03-03T05:41:48;26.30;;;23.80;;
43996;SDS011;34318;45.818;15.964;2023-03-03T05:44:15;27.00;;;24.60;;
43996;SDS011;34318;45.818;15.964;2023-03-03T05:46:45;26.65;;;24.25;;
43996;SDS011;34318;45.818;15.964;2023-03-03T05:49:13;26.42;;;24.02;;
43996;SDS011;34318;45.818;15.964;2023-03-03T05:51:40;26.45;;;24.08;;
43996;SDS011;34318;45.818;15.964;2023-03-03T05:54:07;27.30;;;24.75;;
43996;SDS011;34318;45.818;15.964;2023-03-03T05:56:34;26.83;;;24.35;;
43996;SDS011;34318;45.818;15.964;2023-03-03T05:59:02;26.00;;;23.50;;
43996;SDS011;34318;45.818;15.964;2023-03-03T06:01:29;25.90;;;23.38;;
43996;SDS011;34318;45.818;15.964;2023-03-03T06:03:56;25.90;;;23.30;;
43996;SDS011;34318;45.818;15.964;2023-03-03T06:06:23;26.13;;;23.55;;
43996;SDS011;34318;45.818;15.964;2023-03-03T06:08:51;25.90;;;23.35;;
43996;SDS011;34318;45.818;15.964;2023-03-03T06:11:22;27.50;;;23.98;;
43996;SDS011;34318;45.818;15.964;2023-03-03T06:13:49;26.38;;;23.73;;
43996;SDS011;34318;45.818;15.964;2023-03-03T06:16:16;29.08;;;24.23;;
43996;SDS011;34318;45.818;15.964;2023-03-03T06:18:44;26.40;;;23.52;;
43996;SDS011;34318;45.818;15.964;2023-03-03T06:21:11;25.83;;;23.33;;
43996;SDS011;34318;45.818;15.964;2023-03-03T06:23:38;27.48;;;23.15;;
43996;SDS011;34318;45.818;15.964;2023-03-03T06:26:06;26.85;;;24.05;;
43996;SDS011;34318;45.818;15.964;2023-03-03T06:28:33;26.27;;;23.67;;
43996;SDS011;34318;45.818;15.964;2023-03-03T06:31:00;25.70;;;23.05;;
43996;SDS011;34318;45.818;15.964;2023-03-03T06:33:27;25.95;;;22.95;;
43996;SDS011;34318;45.818;15.964;2023-03-03T06:35:54;31.50;;;23.05;;
43996;SDS011;34318;45.818;15.964;2023-03-03T06:38:22;25.50;;;22.55;;
43996;SDS011;34318;45.818;15.964;2023-03-03T06:40:49;25.23;;;22.70;;
43996;SDS011;34318;45.818;15.964;2023-03-03T06:43:16;25.70;;;23.10;;
43996;SDS011;34318;45.818;15.964;2023-03-03T06:45:44;26.65;;;22.95;;
43996;SDS011;34318;45.818;15.964;2023-03-03T06:48:11;30.73;;;24.23;;
43996;SDS011;34318;45.818;15.964;2023-03-03T06:50:38;24.50;;;21.92;;
43996;SDS011;34318;45.818;15.964;2023-03-03T06:53:12;26.17;;;22.80;;
43996;SDS011;34318;45.818;15.964;2023-03-03T06:55:40;26.58;;;22.73;;
43996;SDS011;34318;45.818;15.964;2023-03-03T06:58:11;24.40;;;21.60;;
43996;SDS011;34318;45.818;15.964;2023-03-03T07:00:43;40.42;;;29.80;;
43996;SDS011;34318;45.818;15.964;2023-03-03T07:03:14;40.78;;;26.83;;
43996;SDS011;34318;45.818;15.964;2023-03-03T07:05:42;29.77;;;25.15;;
43996;SDS011;34318;45.818;15.964;2023-03-03T07:08:12;33.92;;;24.58;;
43996;SDS011;34318;45.818;15.964;2023-03-03T07:10:39;30.17;;;24.52;;
43996;SDS011;34318;45.818;15.964;2023-03-03T07:15:43;37.20;;;25.20;;
43996;SDS011;34318;45.818;15.964;2023-03-03T07:18:57;33.65;;;24.23;;
43996;SDS011;34318;45.818;15.964;2023-03-03T07:20:58;28.23;;;24.50;;
43996;SDS011;34318;45.818;15.964;2023-03-03T07:23:27;27.45;;;23.17;;
43996;SDS011;34318;45.818;15.964;2023-03-03T07:25:54;29.85;;;23.02;;
43996;SDS011;34318;45.818;15.964;2023-03-03T07:30:49;28.25;;;23.27;;
43996;SDS011;34318;45.818;15.964;2023-03-03T07:33:24;26.58;;;22.83;;
43996;SDS011;34318;45.818;15.964;2023-03-03T07:35:52;26.13;;;22.95;;
43996;SDS011;34318;45.818;15.964;2023-03-03T07:38:39;25.10;;;21.48;;
43996;SDS011;34318;45.818;15.964;2023-03-03T07:41:11;24.60;;;21.92;;
43996;SDS011;34318;45.818;15.964;2023-03-03T07:43:53;26.55;;;21.88;;
43996;SDS011;34318;45.818;15.964;2023-03-03T07:48:53;24.88;;;21.88;;
43996;SDS011;34318;45.818;15.964;2023-03-03T07:51:23;28.73;;;22.25;;
43996;SDS011;34318;45.818;15.964;2023-03-03T07:53:53;25.83;;;22.30;;
43996;SDS011;34318;45.818;15.964;2023-03-03T07:56:24;23.52;;;21.10;;
43996;SDS011;34318;45.818;15.964;2023-03-03T07:58:52;25.75;;;21.70;;
43996;SDS011;34318;45.818;15.964;2023-03-03T08:06:54;22.63;;;19.95;;
43996;SDS011;34318;45.818;15.964;2023-03-03T08:12:09;23.73;;;21.08;;
43996;SDS011;34318;45.818;15.964;2023-03-03T08:14:39;23.52;;;20.45;;
43996;SDS011;34318;45.818;15.964;2023-03-03T08:17:40;23.50;;;21.00;;
43996;SDS011;34318;45.818;15.964;2023-03-03T08:20:00;22.75;;;20.35;;
43996;SDS011;34318;45.818;15.964;2023-03-03T08:22:32;22.73;;;19.40;;
43996;SDS011;34318;45.818;15.964;2023-03-03T08:25:00;21.90;;;19.63;;
43996;SDS011;34318;45.818;15.964;2023-03-03T08:27:28;24.45;;;21.17;;
43996;SDS011;34318;45.818;15.964;2023-03-03T08:29:55;22.23;;;19.92;;
43996;SDS011;34318;45.818;15.964;2023-03-03T08:32:22;22.17;;;19.85;;
43996;SDS011;34318;45.818;15.964;2023-03-03T08:34:49;21.17;;;18.95;;
43996;SDS011;34318;45.818;15.964;2023-03-03T08:37:16;22.25;;;19.95;;
43996;SDS011;34318;45.818;15.964;2023-03-03T08:39:44;21.33;;;19.35;;
43996;SDS011;34318;45.818;15.964;2023-03-03T08:42:11;21.77;;;19.48;;
43996;SDS011;34318;45.818;15.964;2023-03-03T08:44:41;21.58;;;19.38;;
43996;SDS011;34318;45.818;15.964;2023-03-03T08:47:08;22.38;;;19.40;;
43996;SDS011;34318;45.818;15.964;2023-03-03T08:49:35;25.35;;;19.17;;
43996;SDS011;34318;45.818;15.964;2023-03-03T08:52:03;22.52;;;20.30;;
43996;SDS011;34318;45.818;15.964;2023-03-03T08:54:30;21.88;;;19.58;;
43996;SDS011;34318;45.818;15.964;2023-03-03T08:56:57;21.60;;;19.30;;
43996;SDS011;34318;45.818;15.964;2023-03-03T08:59:24;22.08;;;19.80;;
43996;SDS011;34318;45.818;15.964;2023-03-03T09:01:51;20.52;;;18.58;;
43996;SDS011;34318;45.818;15.964;2023-03-03T09:04:19;21.00;;;19.05;;
43996;SDS011;34318;45.818;15.964;2023-03-03T09:06:46;22.13;;;18.90;;
43996;SDS011;34318;45.818;15.964;2023-03-03T09:09:13;21.75;;;19.60;;
43996;SDS011;34318;45.818;15.964;2023-03-03T09:11:40;21.13;;;19.02;;
43996;SDS011;34318;45.818;15.964;2023-03-03T09:14:10;20.30;;;18.35;;
43996;SDS011;34318;45.818;15.964;2023-03-03T09:16:38;20.55;;;18.33;;
43996;SDS011;34318;45.818;15.964;2023-03-03T09:24:31;20.33;;;18.30;;
43996;SDS011;34318;45.818;15.964;2023-03-03T09:27:01;19.92;;;18.02;;
43996;SDS011;34318;45.818;15.964;2023-03-03T09:29:36;20.13;;;18.13;;
43996;SDS011;34318;45.818;15.964;2023-03-03T09:32:12;19.27;;;17.35;;
43996;SDS011;34318;45.818;15.964;2023-03-03T09:34:43;21.80;;;19.70;;
43996;SDS011;34318;45.818;15.964;2023-03-03T09:39:51;20.63;;;18.42;;
43996;SDS011;34318;45.818;15.964;2023-03-03T09:55:33;19.67;;;17.65;;
43996;SDS011;34318;45.818;15.964;2023-03-03T10:05:54;25.48;;;21.17;;
43996;SDS011;34318;45.818;15.964;2023-03-03T10:08:31;24.00;;;20.40;;
43996;SDS011;34318;45.818;15.964;2023-03-03T10:11:06;27.10;;;23.10;;
43996;SDS011;34318;45.818;15.964;2023-03-03T10:13:54;25.02;;;21.60;;
43996;SDS011;34318;45.818;15.964;2023-03-03T10:16:30;25.80;;;23.33;;
43996;SDS011;34318;45.818;15.964;2023-03-03T10:19:10;30.30;;;24.20;;
43996;SDS011;34318;45.818;15.964;2023-03-03T10:21:44;27.73;;;24.83;;
43996;SDS011;34318;45.818;15.964;2023-03-03T10:24:18;27.88;;;25.15;;
43996;SDS011;34318;45.818;15.964;2023-03-03T10:29:57;29.42;;;26.20;;
43996;SDS011;34318;45.818;15.964;2023-03-03T10:50:21;25.98;;;23.25;;
43996;SDS011;34318;45.818;15.964;2023-03-03T11:00:34;26.55;;;21.67;;
43996;SDS011;34318;45.818;15.964;2023-03-03T11:11:25;26.25;;;23.50;;
43996;SDS011;34318;45.818;15.964;2023-03-03T11:14:17;28.52;;;23.05;;
43996;SDS011;34318;45.818;15.964;2023-03-03T11:19:20;28.48;;;23.58;;
43996;SDS011;34318;45.818;15.964;2023-03-03T11:24:27;29.83;;;23.00;;
43996;SDS011;34318;45.818;15.964;2023-03-03T11:34:37;28.02;;;24.75;;
43996;SDS011;34318;45.818;15.964;2023-03-03T11:39:37;31.52;;;28.15;;
43996;SDS011;34318;45.818;15.964;2023-03-03T11:42:20;35.55;;;30.77;;
43996;SDS011;34318;45.818;15.964;2023-03-03T11:44:52;42.00;;;35.27;;
43996;SDS011;34318;45.818;15.964;2023-03-03T11:55:07;54.50;;;42.92;;
43996;SDS011;34318;45.818;15.964;2023-03-03T12:05:33;53.47;;;38.95;;
43996;SDS011;34318;45.818;15.964;2023-03-03T12:13:16;45.22;;;38.00;;
43996;SDS011;34318;45.818;15.964;2023-03-03T12:23:33;56.70;;;49.08;;
43996;SDS011;34318;45.818;15.964;2023-03-03T12:28:37;52.80;;;47.13;;
43996;SDS011;34318;45.818;15.964;2023-03-03T12:36:32;51.97;;;43.60;;
43996;SDS011;34318;45.818;15.964;2023-03-03T12:44:17;79.35;;;52.45;;
43996;SDS011;34318;45.818;15.964;2023-03-03T12:47:08;85.18;;;52.42;;
43996;SDS011;34318;45.818;15.964;2023-03-03T12:55:07;42.13;;;36.47;;
43996;SDS011;34318;45.818;15.964;2023-03-03T12:57:49;40.40;;;33.28;;
43996;SDS011;34318;45.818;15.964;2023-03-03T13:03:04;31.67;;;27.75;;
43996;SDS011;34318;45.818;15.964;2023-03-03T13:10:50;27.40;;;24.58;;
43996;SDS011;34318;45.818;15.964;2023-03-03T13:13:31;28.95;;;25.40;;
43996;SDS011;34318;45.818;15.964;2023-03-03T13:16:02;28.13;;;25.13;;
43996;SDS011;34318;45.818;15.964;2023-03-03T13:21:02;43.25;;;38.50;;
43996;SDS011;34318;45.818;15.964;2023-03-03T13:26:03;46.47;;;41.67;;
43996;SDS011;34318;45.818;15.964;2023-03-03T13:31:04;40.78;;;36.72;;
43996;SDS011;34318;45.818;15.964;2023-03-03T13:33:35;39.53;;;35.30;;
43996;SDS011;34318;45.818;15.964;2023-03-03T13:36:04;36.47;;;32.67;;
43996;SDS011;34318;45.818;15.964;2023-03-03T13:38:40;37.47;;;33.75;;
43996;SDS011;34318;45.818;15.964;2023-03-03T13:41:13;33.50;;;29.85;;
43996;SDS011;34318;45.818;15.964;2023-03-03T13:48:54;32.65;;;29.27;;
43996;SDS011;34318;45.818;15.964;2023-03-03T13:51:30;32.33;;;28.95;;
43996;SDS011;34318;45.818;15.964;2023-03-03T13:56:34;31.40;;;28.20;;
43996;SDS011;34318;45.818;15.964;2023-03-03T13:59:47;29.38;;;26.00;;
43996;SDS011;34318;45.818;15.964;2023-03-03T14:02:39;29.38;;;26.25;;
43996;SDS011;34318;45.818;15.964;2023-03-03T14:04:52;29.23;;;26.23;;
43996;SDS011;34318;45.818;15.964;2023-03-03T14:07:20;32.58;;;24.48;;
43996;SDS011;34318;45.818;15.964;2023-03-03T14:20:31;28.10;;;25.23;;
43996;SDS011;34318;45.818;15.964;2023-03-03T14:23:01;28.75;;;25.65;;
43996;SDS011;34318;45.818;15.964;2023-03-03T14:28:15;29.40;;;24.65;;
43996;SDS011;34318;45.818;15.964;2023-03-03T14:30:44;33.13;;;24.17;;
43996;SDS011;34318;45.818;15.964;2023-03-03T14:38:11;26.20;;;23.58;;
43996;SDS011;34318;45.818;15.964;2023-03-03T14:40:40;24.25;;;21.95;;
43996;SDS011;34318;45.818;15.964;2023-03-03T14:45:51;30.35;;;22.42;;
43996;SDS011;34318;45.818;15.964;2023-03-03T14:48:20;23.23;;;21.00;;
43996;SDS011;34318;45.818;15.964;2023-03-03T14:50:49;25.33;;;22.63;;
43996;SDS011;34318;45.818;15.964;2023-03-03T14:55:48;47.30;;;30.65;;
43996;SDS011;34318;45.818;15.964;2023-03-03T15:03:59;100.22;;;54.53;;
43996;SDS011;34318;45.818;15.964;2023-03-03T15:06:32;74.68;;;46.33;;
43996;SDS011;34318;45.818;15.964;2023-03-03T15:11:46;52.88;;;32.72;;
43996;SDS011;34318;45.818;15.964;2023-03-03T15:14:17;38.47;;;27.77;;
43996;SDS011;34318;45.818;15.964;2023-03-03T15:16:46;34.50;;;26.15;;
43996;SDS011;34318;45.818;15.964;2023-03-03T15:21:44;35.05;;;27.23;;
43996;SDS011;34318;45.818;15.964;2023-03-03T15:26:51;25.88;;;23.13;;
43996;SDS011;34318;45.818;15.964;2023-03-03T15:37:04;31.10;;;25.20;;
43996;SDS011;34318;45.818;15.964;2023-03-03T15:40:18;28.65;;;24.02;;
43996;SDS011;34318;45.818;15.964;2023-03-03T15:42:45;30.15;;;22.25;;
43996;SDS011;34318;45.818;15.964;2023-03-03T15:45:20;26.23;;;23.42;;
43996;SDS011;34318;45.818;15.964;2023-03-03T16:00:32;28.25;;;21.15;;
43996;SDS011;34318;45.818;15.964;2023-03-03T16:05:33;21.77;;;19.40;;
43996;SDS011;34318;45.818;15.964;2023-03-03T16:08:11;22.98;;;20.58;;
43996;SDS011;34318;45.818;15.964;2023-03-03T16:23:45;25.35;;;19.73;;
43996;SDS011;34318;45.818;15.964;2023-03-03T16:31:35;26.42;;;20.67;;
43996;SDS011;34318;45.818;15.964;2023-03-03T16:34:06;25.02;;;19.02;;
43996;SDS011;34318;45.818;15.964;2023-03-03T16:41:59;27.27;;;18.20;;
43996;SDS011;34318;45.818;15.964;2023-03-03T16:44:48;23.50;;;19.67;;
43996;SDS011;34318;45.818;15.964;2023-03-03T16:49:58;21.67;;;18.02;;
43996;SDS011;34318;45.818;15.964;2023-03-03T16:52:35;22.10;;;19.75;;
43996;SDS011;34318;45.818;15.964;2023-03-03T16:55:10;23.65;;;19.83;;
43996;SDS011;34318;45.818;15.964;2023-03-03T17:00:20;24.52;;;20.38;;
43996;SDS011;34318;45.818;15.964;2023-03-03T17:05:38;22.63;;;19.08;;
43996;SDS011;34318;45.818;15.964;2023-03-03T17:18:33;75.53;;;68.30;;
43996;SDS011;34318;45.818;15.964;2023-03-03T17:21:08;85.47;;;77.47;;
43996;SDS011;34318;45.818;15.964;2023-03-03T17:26:29;84.53;;;76.20;;
43996;SDS011;34318;45.818;15.964;2023-03-03T17:34:20;78.65;;;70.68;;
43996;SDS011;34318;45.818;15.964;2023-03-03T17:42:28;78.03;;;70.45;;
43996;SDS011;34318;45.818;15.964;2023-03-03T17:52:40;70.55;;;63.20;;
43996;SDS011;34318;45.818;15.964;2023-03-03T17:57:59;69.30;;;61.97;;
43996;SDS011;34318;45.818;15.964;2023-03-03T18:11:11;117.90;;;106.63;;
43996;SDS011;34318;45.818;15.964;2023-03-03T18:16:22;116.15;;;104.43;;
43996;SDS011;34318;45.818;15.964;2023-03-03T18:21:23;108.50;;;97.78;;
43996;SDS011;34318;45.818;15.964;2023-03-03T18:23:53;107.95;;;97.32;;
43996;SDS011;34318;45.818;15.964;2023-03-03T18:26:40;97.68;;;88.00;;
43996;SDS011;34318;45.818;15.964;2023-03-03T18:36:50;160.20;;;145.32;;
43996;SDS011;34318;45.818;15.964;2023-03-03T18:39:35;229.05;;;209.13;;
43996;SDS011;34318;45.818;15.964;2023-03-03T18:42:10;209.85;;;191.35;;
43996;SDS011;34318;45.818;15.964;2023-03-03T18:44:55;156.18;;;141.57;;
43996;SDS011;34318;45.818;15.964;2023-03-03T18:50:28;152.80;;;138.65;;
43996;SDS011;34318;45.818;15.964;2023-03-03T18:55:40;149.57;;;135.65;;
43996;SDS011;34318;45.818;15.964;2023-03-03T19:00:51;143.77;;;130.57;;
43996;SDS011;34318;45.818;15.964;2023-03-03T19:03:34;142.23;;;129.18;;
43996;SDS011;34318;45.818;15.964;2023-03-03T19:06:05;137.85;;;124.70;;
43996;SDS011;34318;45.818;15.964;2023-03-03T19:08:52;135.73;;;123.28;;
43996;SDS011;34318;45.818;15.964;2023-03-03T19:11:40;131.70;;;119.57;;
43996;SDS011;34318;45.818;15.964;2023-03-03T19:16:40;122.38;;;110.93;;
43996;SDS011;34318;45.818;15.964;2023-03-03T19:19:11;120.75;;;109.60;;
43996;SDS011;34318;45.818;15.964;2023-03-03T19:21:40;123.10;;;111.53;;
43996;SDS011;34318;45.818;15.964;2023-03-03T19:45:26;148.45;;;134.80;;
43996;SDS011;34318;45.818;15.964;2023-03-03T19:48:13;153.43;;;139.15;;
43996;SDS011;34318;45.818;15.964;2023-03-03T19:51:00;148.10;;;134.93;;
43996;SDS011;34318;45.818;15.964;2023-03-03T20:01:48;137.38;;;124.88;;
43996;SDS011;34318;45.818;15.964;2023-03-03T20:09:24;157.45;;;143.65;;
43996;SDS011;34318;45.818;15.964;2023-03-03T20:14:46;201.73;;;184.83;;
43996;SDS011;34318;45.818;15.964;2023-03-03T20:19:59;160.75;;;146.35;;
43996;SDS011;34318;45.818;15.964;2023-03-03T20:22:43;144.65;;;131.85;;
43996;SDS011;34318;45.818;15.964;2023-03-03T20:25:24;136.27;;;123.80;;
43996;SDS011;34318;45.818;15.964;2023-03-03T20:28:00;131.85;;;120.13;;
43996;SDS011;34318;45.818;15.964;2023-03-03T20:38:28;108.57;;;98.70;;
43996;SDS011;34318;45.818;15.964;2023-03-03T20:41:10;105.10;;;95.65;;
43996;SDS011;34318;45.818;15.964;2023-03-03T20:46:11;94.15;;;85.38;;
43996;SDS011;34318;45.818;15.964;2023-03-03T20:51:20;83.30;;;75.38;;
43996;SDS011;34318;45.818;15.964;2023-03-03T20:53:54;82.72;;;75.03;;
43996;SDS011;34318;45.818;15.964;2023-03-03T20:56:41;81.20;;;73.47;;
43996;SDS011;34318;45.818;15.964;2023-03-03T21:04:27;72.20;;;65.22;;